createdAt,value
2018-07-24T00:00:40.534Z,76.26
2018-07-24T00:01:40.528Z,76.75
2018-07-24T00:02:40.511Z,76.56
2018-07-24T00:03:40.499Z,76.56
2018-07-24T00:04:40.490Z,77.33
2018-07-24T00:05:40.485Z,77.33
2018-07-24T00:06:40.464Z,78.15
2018-07-24T00:07:40.455Z,78.15
2018-07-24T00:08:40.442Z,78.25
2018-07-24T00:09:40.430Z,79.02
2018-07-24T00:10:40.427Z,78.06
2018-07-24T00:11:40.407Z,78.06
2018-07-24T00:12:40.400Z,77.48
2018-07-24T00:13:40.383Z,77.42
2018-07-24T00:14:40.371Z,78.25
2018-07-24T00:15:40.362Z,77.71
2018-07-24T00:16:40.347Z,78.19
2018-07-24T00:17:40.335Z,78.44
2018-07-24T00:18:40.325Z,78.00
2018-07-24T00:19:40.311Z,78.44
2018-07-24T00:20:40.300Z,79.30
2018-07-24T00:21:40.288Z,79.40
2018-07-24T00:22:40.277Z,79.02
2018-07-24T00:23:40.273Z,80.55
2018-07-24T00:24:40.254Z,79.98
2018-07-24T00:25:40.241Z,80.36
2018-07-24T00:26:40.227Z,81.13
2018-07-24T00:27:40.218Z,81.13
2018-07-24T00:28:40.205Z,79.98
2018-07-24T00:29:40.193Z,80.65
2018-07-24T00:30:40.181Z,80.84
2018-07-24T00:31:40.172Z,80.84
2018-07-24T00:32:40.155Z,81.23
2018-07-24T00:33:40.145Z,80.46
2018-07-24T00:34:40.132Z,80.94
2018-07-24T00:35:40.121Z,81.42
2018-07-24T00:36:40.108Z,82.15
2018-07-24T00:37:40.095Z,82.92
2018-07-24T00:38:40.084Z,82.73
2018-07-24T00:39:40.076Z,82.82
2018-07-24T00:40:40.063Z,82.63
2018-07-24T00:41:40.048Z,83.40
2018-07-24T00:42:40.035Z,83.30
2018-07-24T00:43:40.023Z,83.78
2018-07-24T00:44:40.011Z,83.40
2018-07-24T00:45:40.007Z,83.16
2018-07-24T00:46:39.989Z,83.16
2018-07-24T00:47:40.047Z,83.78
2018-07-24T00:48:39.965Z,83.49
2018-07-24T00:49:39.950Z,83.84
2018-07-24T00:50:39.940Z,82.20
2018-07-24T00:51:39.925Z,83.69
2018-07-24T00:52:39.913Z,83.49
2018-07-24T00:53:39.907Z,82.15
2018-07-24T00:54:39.889Z,82.05
2018-07-24T00:55:39.881Z,82.73
2018-07-24T00:56:39.864Z,80.90
2018-07-24T00:57:39.856Z,81.48
2018-07-24T00:58:39.842Z,81.19
2018-07-24T00:59:39.828Z,80.61
2018-07-24T01:00:39.815Z,81.86
2018-07-24T01:01:39.804Z,80.80
2018-07-24T01:02:39.791Z,80.80
2018-07-24T01:03:39.779Z,81.48
2018-07-24T01:04:39.766Z,82.15
2018-07-24T01:05:39.755Z,81.96
2018-07-24T01:06:39.743Z,82.15
2018-07-24T01:07:39.732Z,80.99
2018-07-24T01:08:39.775Z,81.96
2018-07-24T01:09:39.731Z,82.34
2018-07-24T01:10:39.692Z,81.67
2018-07-24T01:11:39.679Z,82.53
2018-07-24T01:12:39.671Z,82.24
2018-07-24T01:13:39.655Z,82.15
2018-07-24T01:14:39.642Z,83.26
2018-07-24T01:15:39.628Z,83.30
2018-07-24T01:16:39.616Z,84.22
2018-07-24T01:17:39.606Z,84.03
2018-07-24T01:18:39.592Z,84.03
2018-07-24T01:19:39.580Z,84.41
2018-07-24T01:20:39.566Z,84.99
2018-07-24T01:21:39.553Z,85.28
2018-07-24T01:22:39.542Z,86.14
2018-07-24T01:23:39.532Z,85.85
2018-07-24T01:24:39.518Z,85.75
2018-07-24T01:25:39.503Z,85.42
2018-07-24T01:26:39.491Z,85.04
2018-07-24T01:27:39.478Z,85.14
2018-07-24T01:28:39.468Z,85.04
2018-07-24T01:29:39.453Z,84.85
2018-07-24T01:30:39.440Z,86.10
2018-07-24T01:31:39.429Z,86.10
2018-07-24T01:32:39.419Z,86.38
2018-07-24T01:33:39.404Z,86.19
2018-07-24T01:34:39.390Z,86.58
2018-07-24T01:35:39.381Z,86.77
2018-07-24T01:36:39.369Z,86.58
2018-07-24T01:37:39.353Z,86.68
2018-07-24T01:38:39.349Z,86.10
2018-07-24T01:39:39.326Z,86.77
2018-07-24T01:40:39.313Z,86.77
2018-07-24T01:41:39.300Z,86.19
2018-07-24T01:42:39.289Z,85.52
2018-07-24T01:43:39.275Z,85.04
2018-07-24T01:44:39.262Z,85.71
2018-07-24T01:45:39.252Z,85.62
2018-07-24T01:46:39.237Z,86.10
2018-07-24T01:47:39.226Z,86.96
2018-07-24T01:48:39.211Z,86.19
2018-07-24T01:49:39.198Z,86.77
2018-07-24T01:50:39.185Z,86.68
2018-07-24T01:51:39.172Z,87.15
2018-07-24T01:52:39.160Z,87.63
2018-07-24T01:53:39.148Z,87.54
2018-07-24T01:54:39.139Z,87.82
2018-07-24T01:55:39.121Z,88.02
2018-07-24T01:56:39.108Z,87.44
2018-07-24T01:57:39.094Z,88.31
2018-07-24T01:58:39.083Z,88.88
2018-07-24T01:59:39.070Z,88.98
2018-07-24T02:00:39.058Z,89.12
2018-07-24T02:01:39.048Z,89.07
2018-07-24T02:02:39.035Z,87.82
2018-07-24T02:03:39.017Z,88.21
2018-07-24T02:04:39.005Z,88.59
2018-07-24T02:05:38.992Z,88.84
2018-07-24T02:06:38.984Z,88.79
2018-07-24T02:07:38.966Z,88.40
2018-07-24T02:08:38.953Z,87.15
2018-07-24T02:09:38.940Z,87.44
2018-07-24T02:10:38.928Z,87.82
2018-07-24T02:11:38.916Z,88.31
2018-07-24T02:12:38.901Z,88.26
2018-07-24T02:13:38.887Z,89.22
2018-07-24T02:14:38.875Z,89.41
2018-07-24T02:15:38.862Z,89.22
2018-07-24T02:16:38.853Z,89.70
2018-07-24T02:17:38.838Z,88.26
2018-07-24T02:18:38.822Z,87.68
2018-07-24T02:19:38.809Z,88.74
2018-07-24T02:20:38.801Z,88.65
2018-07-24T02:21:38.791Z,89.70
2018-07-24T02:22:38.770Z,89.61
2018-07-24T02:23:38.757Z,89.70
2018-07-24T02:24:38.744Z,89.22
2018-07-24T02:25:38.734Z,88.93
2018-07-24T02:26:38.726Z,88.74
2018-07-24T02:27:38.705Z,88.35
2018-07-24T02:28:38.691Z,87.82
2018-07-24T02:29:38.678Z,87.54
2018-07-24T02:30:38.665Z,87.15
2018-07-24T02:31:38.653Z,87.54
2018-07-24T02:32:38.638Z,88.02
2018-07-24T02:33:38.627Z,87.54
2018-07-24T02:34:38.613Z,86.00
2018-07-24T02:35:38.601Z,87.73
2018-07-24T02:36:38.590Z,87.82
2018-07-24T02:37:38.573Z,88.26
2018-07-24T02:38:38.560Z,88.17
2018-07-24T02:39:38.551Z,88.93
2018-07-24T02:40:38.534Z,89.22
2018-07-24T02:41:38.525Z,89.99
2018-07-24T02:42:38.506Z,89.79
2018-07-24T02:43:38.494Z,90.66
2018-07-24T02:44:38.482Z,90.08
2018-07-24T02:45:38.470Z,90.56
2018-07-24T02:46:38.454Z,90.37
2018-07-24T02:47:38.441Z,90.37
2018-07-24T02:48:38.429Z,90.75
2018-07-24T02:49:38.414Z,90.85
2018-07-24T02:50:38.402Z,89.99
2018-07-24T02:51:38.387Z,91.14
2018-07-24T02:52:38.376Z,89.89
2018-07-24T02:53:38.413Z,89.70
2018-07-24T02:54:38.346Z,90.28
2018-07-24T02:55:38.336Z,89.51
2018-07-24T02:56:38.320Z,90.08
2018-07-24T02:57:38.307Z,90.56
2018-07-24T02:58:38.292Z,90.56
2018-07-24T02:59:38.281Z,90.75
2018-07-24T03:00:38.268Z,90.85
2018-07-24T03:01:38.253Z,90.85
2018-07-24T03:02:38.240Z,91.91
2018-07-24T03:03:38.228Z,91.52
2018-07-24T03:04:38.216Z,90.66
2018-07-24T03:05:38.199Z,90.37
2018-07-24T03:06:38.193Z,90.08
2018-07-24T03:07:38.171Z,90.56
2018-07-24T03:08:38.159Z,89.89
2018-07-24T03:09:38.151Z,89.41
2018-07-24T03:10:38.132Z,90.85
2018-07-24T03:11:38.118Z,89.61
2018-07-24T03:12:38.104Z,88.84
2018-07-24T03:13:38.095Z,89.99
2018-07-24T03:14:38.080Z,89.99
2018-07-24T03:15:38.064Z,90.75
2018-07-24T03:16:38.051Z,90.56
2018-07-24T03:17:38.040Z,90.75
2018-07-24T03:18:38.026Z,90.56
2018-07-24T03:19:38.011Z,89.89
2018-07-24T03:20:38.002Z,90.37
2018-07-24T03:21:37.984Z,90.75
2018-07-24T03:22:37.971Z,91.24
2018-07-24T03:23:37.956Z,91.81
2018-07-24T03:24:37.944Z,91.81
2018-07-24T03:25:37.930Z,91.77
2018-07-24T03:26:37.916Z,91.19
2018-07-24T03:27:37.902Z,90.95
2018-07-24T03:28:37.889Z,89.89
2018-07-24T03:29:37.876Z,91.05
2018-07-24T03:30:37.864Z,90.75
2018-07-24T03:31:37.852Z,90.37
2018-07-24T03:32:37.837Z,89.79
2018-07-24T03:33:37.822Z,90.66
2018-07-24T03:34:37.805Z,90.95
2018-07-24T03:35:37.793Z,90.56
2018-07-24T03:36:37.782Z,91.14
2018-07-24T03:37:37.766Z,91.05
2018-07-24T03:38:37.753Z,91.14
2018-07-24T03:39:37.749Z,91.86
2018-07-24T03:40:37.725Z,91.57
2018-07-24T03:41:37.711Z,91.77
2018-07-24T03:42:37.701Z,91.77
2018-07-24T03:43:37.686Z,91.77
2018-07-24T03:44:37.670Z,91.48
2018-07-24T03:45:37.661Z,89.89
2018-07-24T03:46:37.642Z,89.89
2018-07-24T03:47:37.634Z,89.22
2018-07-24T03:48:37.620Z,90.66
2018-07-24T03:49:37.607Z,91.05
2018-07-24T03:50:37.590Z,90.95
2018-07-24T03:51:37.575Z,91.05
2018-07-24T03:52:37.561Z,92.10
2018-07-24T03:53:37.550Z,91.14
2018-07-24T03:54:37.537Z,91.24
2018-07-24T03:55:37.526Z,92.00
2018-07-24T03:56:37.511Z,93.21
2018-07-24T03:57:37.496Z,93.15
2018-07-24T03:58:37.481Z,93.01
2018-07-24T03:59:37.465Z,93.21
2018-07-24T04:00:37.458Z,92.54
2018-07-24T04:01:37.440Z,92.05
2018-07-24T04:02:37.425Z,92.05
2018-07-24T04:03:37.413Z,92.44
2018-07-24T04:04:37.401Z,93.49
2018-07-24T04:05:37.385Z,93.59
2018-07-24T04:06:37.369Z,94.88
2018-07-24T04:07:37.361Z,93.88
2018-07-24T04:08:37.345Z,94.17
2018-07-24T04:09:37.329Z,94.07
2018-07-24T04:10:37.315Z,93.73
2018-07-24T04:11:37.302Z,94.31
2018-07-24T04:12:37.290Z,93.59
2018-07-24T04:13:37.278Z,93.82
2018-07-24T04:14:37.259Z,93.54
2018-07-24T04:15:37.248Z,93.92
2018-07-24T04:16:37.234Z,94.12
2018-07-24T04:17:37.221Z,93.44
2018-07-24T04:18:37.209Z,92.29
2018-07-24T04:19:37.202Z,92.39
2018-07-24T04:20:37.179Z,92.96
2018-07-24T04:21:37.167Z,93.54
2018-07-24T04:22:37.152Z,93.63
2018-07-24T04:23:37.139Z,93.92
2018-07-24T04:24:37.123Z,93.35
2018-07-24T04:25:37.111Z,93.35
2018-07-24T04:26:37.097Z,92.58
2018-07-24T04:27:37.090Z,93.15
2018-07-24T04:28:37.069Z,93.15
2018-07-24T04:29:37.063Z,93.35
2018-07-24T04:30:37.043Z,93.35
2018-07-24T04:31:37.030Z,92.96
2018-07-24T04:32:37.015Z,92.86
2018-07-24T04:33:37.005Z,92.19
2018-07-24T04:34:36.988Z,92.96
2018-07-24T04:35:36.975Z,92.96
2018-07-24T04:36:36.959Z,93.15
2018-07-24T04:37:36.948Z,92.96
2018-07-24T04:38:36.933Z,93.15
2018-07-24T04:39:36.918Z,92.96
2018-07-24T04:40:36.909Z,92.96
2018-07-24T04:41:36.894Z,93.10
2018-07-24T04:42:36.877Z,93.06
2018-07-24T04:43:36.865Z,93.20
2018-07-24T04:44:36.855Z,93.49
2018-07-24T04:45:36.839Z,94.54
2018-07-24T04:46:36.823Z,93.30
2018-07-24T04:47:36.811Z,93.68
2018-07-24T04:48:36.803Z,94.54
2018-07-24T04:49:36.787Z,94.74
2018-07-24T04:50:36.768Z,94.16
2018-07-24T04:51:36.756Z,94.26
2018-07-24T04:52:36.742Z,94.45
2018-07-24T04:53:36.730Z,94.16
2018-07-24T04:54:36.721Z,94.31
2018-07-24T04:55:36.703Z,93.73
2018-07-24T04:56:36.690Z,93.44
2018-07-24T04:57:36.683Z,93.54
2018-07-24T04:58:36.665Z,93.82
2018-07-24T04:59:36.647Z,93.92
2018-07-24T05:00:36.635Z,93.73
2018-07-24T05:01:36.625Z,93.05
2018-07-24T05:02:36.629Z,92.67
2018-07-24T05:03:36.596Z,93.49
2018-07-24T05:04:36.583Z,93.54
2018-07-24T05:05:36.568Z,93.10
2018-07-24T05:06:36.592Z,93.39
2018-07-24T05:07:36.541Z,93.49
2018-07-24T05:08:36.531Z,93.58
2018-07-24T05:09:36.572Z,92.52
2018-07-24T05:10:36.607Z,93.10
2018-07-24T05:11:36.487Z,93.53
2018-07-24T05:12:36.473Z,92.57
2018-07-24T05:13:36.461Z,92.19
2018-07-24T05:14:36.450Z,91.71
2018-07-24T05:15:36.440Z,90.94
2018-07-24T05:16:36.432Z,91.03
2018-07-24T05:17:36.408Z,89.88
2018-07-24T05:18:36.393Z,90.55
2018-07-24T05:19:36.382Z,90.17
2018-07-24T05:20:36.372Z,90.65
2018-07-24T05:21:36.355Z,91.27
2018-07-24T05:22:36.350Z,91.17
2018-07-24T05:23:36.372Z,90.50
2018-07-24T05:24:36.320Z,90.41
2018-07-24T05:25:36.303Z,90.31
2018-07-24T05:26:36.289Z,88.87
2018-07-24T05:27:36.278Z,89.15
2018-07-24T05:28:36.264Z,88.00
2018-07-24T05:29:36.254Z,88.29
2018-07-24T05:30:36.238Z,87.90
2018-07-24T05:31:36.226Z,87.56
2018-07-24T05:32:36.219Z,87.66
2018-07-24T05:33:36.200Z,86.89
2018-07-24T05:34:36.187Z,86.51
2018-07-24T05:35:36.175Z,85.74
2018-07-24T05:36:36.161Z,86.99
2018-07-24T05:37:36.149Z,86.22
2018-07-24T05:38:36.139Z,86.60
2018-07-24T05:39:36.122Z,86.02
2018-07-24T05:40:36.113Z,86.31
2018-07-24T05:41:36.098Z,85.74
2018-07-24T05:42:36.085Z,85.97
2018-07-24T05:43:36.072Z,85.97
2018-07-24T05:44:36.063Z,85.39
2018-07-24T05:45:36.046Z,85.00
2018-07-24T05:46:36.032Z,84.81
2018-07-24T05:47:36.021Z,84.23
2018-07-24T05:48:36.043Z,84.09
2018-07-24T05:49:35.999Z,83.89
2018-07-24T05:50:35.991Z,84.28
2018-07-24T05:51:35.967Z,83.61
2018-07-24T05:52:35.958Z,83.70
2018-07-24T05:53:35.945Z,82.26
2018-07-24T05:54:35.932Z,82.01
2018-07-24T05:55:35.922Z,81.91
2018-07-24T05:56:35.907Z,81.72
2018-07-24T05:57:35.896Z,82.59
2018-07-24T05:58:35.895Z,82.97
2018-07-24T05:59:35.872Z,82.29
2018-07-24T06:00:35.860Z,82.39
2018-07-24T06:01:35.848Z,82.29
2018-07-24T06:02:35.834Z,81.24
2018-07-24T06:03:35.822Z,80.76
2018-07-24T06:04:35.812Z,81.57
2018-07-24T06:05:35.802Z,81.18
2018-07-24T06:06:35.788Z,81.85
2018-07-24T06:07:35.773Z,81.37
2018-07-24T06:08:35.759Z,81.47
2018-07-24T06:09:35.749Z,80.60
2018-07-24T06:10:35.736Z,80.69
2018-07-24T06:11:35.731Z,80.02
2018-07-24T06:12:35.711Z,79.83
2018-07-24T06:13:35.700Z,79.06
2018-07-24T06:14:35.688Z,79.87
2018-07-24T06:15:35.673Z,79.87
2018-07-24T06:16:35.687Z,79.19
2018-07-24T06:17:35.651Z,79.10
2018-07-24T06:18:35.645Z,79.58
2018-07-24T06:19:35.628Z,78.81
2018-07-24T06:20:35.616Z,78.81
2018-07-24T06:21:35.610Z,78.81
2018-07-24T06:22:35.593Z,78.17
2018-07-24T06:23:35.603Z,78.33
2018-07-24T06:24:35.568Z,78.33
2018-07-24T06:25:35.559Z,78.85
2018-07-24T06:26:35.548Z,79.81
2018-07-24T06:27:35.534Z,78.94
2018-07-24T06:28:35.521Z,77.78
2018-07-24T06:29:35.514Z,76.43
2018-07-24T06:30:35.499Z,76.43
2018-07-24T06:31:35.486Z,76.63
2018-07-24T06:32:35.474Z,77.50
2018-07-24T06:33:35.463Z,77.01
2018-07-24T06:34:35.450Z,77.34
2018-07-24T06:35:35.440Z,76.86
2018-07-24T06:36:35.438Z,76.18
2018-07-24T06:37:35.417Z,75.41
2018-07-24T06:38:35.404Z,74.16
2018-07-24T06:39:35.402Z,74.93
2018-07-24T06:40:35.383Z,74.73
2018-07-24T06:41:35.371Z,73.61
2018-07-24T06:42:35.360Z,73.80
2018-07-24T06:43:35.352Z,74.38
2018-07-24T06:44:35.338Z,74.68
2018-07-24T06:45:35.325Z,74.38
2018-07-24T06:46:35.314Z,74.00
2018-07-24T06:47:35.300Z,72.64
2018-07-24T06:48:35.291Z,72.94
2018-07-24T06:49:35.285Z,73.13
2018-07-24T06:50:35.273Z,73.32
2018-07-24T06:51:35.344Z,73.16
2018-07-24T06:52:35.247Z,73.94
2018-07-24T06:53:35.235Z,73.16
2018-07-24T06:54:35.223Z,72.88
2018-07-24T06:55:35.214Z,71.14
2018-07-24T06:56:35.221Z,72.04
2018-07-24T06:57:35.191Z,71.84
2018-07-24T06:58:35.179Z,69.82
2018-07-24T06:59:35.170Z,70.40
2018-07-24T07:00:35.160Z,70.88
2018-07-24T07:01:35.151Z,69.43
2018-07-24T07:02:35.138Z,68.85
2018-07-24T07:03:35.126Z,68.95
2018-07-24T07:04:35.115Z,67.98
2018-07-24T07:05:35.106Z,68.46
2018-07-24T07:06:35.094Z,68.98
2018-07-24T07:07:35.095Z,70.10
2018-07-24T07:08:35.073Z,70.53
2018-07-24T07:09:35.066Z,69.56
2018-07-24T07:10:35.062Z,68.01
2018-07-24T07:11:35.044Z,69.75
2018-07-24T07:12:35.034Z,69.37
2018-07-24T07:13:35.056Z,68.59
2018-07-24T07:14:35.012Z,67.24
2018-07-24T07:15:35.000Z,67.95
2018-07-24T07:16:34.993Z,68.05
2018-07-24T07:17:34.980Z,67.66
2018-07-24T07:18:34.968Z,66.30
2018-07-24T07:19:34.957Z,65.63
2018-07-24T07:20:34.980Z,64.85
2018-07-24T07:21:34.939Z,64.85
2018-07-24T07:22:34.929Z,65.43
2018-07-24T07:23:34.920Z,65.92
2018-07-24T07:24:34.908Z,65.75
2018-07-24T07:25:34.899Z,65.85
2018-07-24T07:26:34.888Z,64.69
2018-07-24T07:27:34.879Z,64.59
2018-07-24T07:28:34.877Z,65.01
2018-07-24T07:29:34.864Z,65.01
2018-07-24T07:30:34.849Z,65.40
2018-07-24T07:31:34.839Z,65.11
2018-07-24T07:32:34.836Z,64.17
2018-07-24T07:33:34.822Z,65.34
2018-07-24T07:34:34.809Z,65.34
2018-07-24T07:35:34.800Z,64.75
2018-07-24T07:36:34.792Z,65.17
2018-07-24T07:37:34.782Z,64.69
2018-07-24T07:38:34.771Z,65.37
2018-07-24T07:39:34.767Z,64.20
2018-07-24T07:40:34.754Z,61.88
2018-07-24T07:41:34.744Z,61.68
2018-07-24T07:42:34.734Z,62.16
2018-07-24T07:43:34.729Z,61.78
2018-07-24T07:44:34.767Z,62.07
2018-07-24T07:45:34.711Z,61.19
2018-07-24T07:46:34.696Z,60.45
2018-07-24T07:47:34.688Z,59.48
2018-07-24T07:48:34.680Z,60.74
2018-07-24T07:49:34.670Z,59.67
2018-07-24T07:50:34.668Z,61.42
2018-07-24T07:51:34.689Z,60.35
2018-07-24T07:52:34.729Z,60.84
2018-07-24T07:53:34.635Z,60.58
2018-07-24T07:54:34.625Z,60.09
2018-07-24T07:55:34.617Z,61.74
2018-07-24T07:56:34.613Z,60.58
2018-07-24T07:57:34.604Z,61.07
2018-07-24T07:58:34.594Z,60.19
2018-07-24T07:59:34.582Z,60.87
2018-07-24T08:00:34.579Z,59.41
2018-07-24T08:01:34.567Z,57.96
2018-07-24T08:02:34.612Z,58.15
2018-07-24T08:03:34.545Z,59.51
2018-07-24T08:04:34.538Z,58.86
2018-07-24T08:05:34.529Z,58.08
2018-07-24T08:06:34.525Z,58.47
2018-07-24T08:07:34.511Z,58.67
2018-07-24T08:08:34.503Z,59.25
2018-07-24T08:09:34.497Z,59.25
2018-07-24T08:10:34.487Z,57.11
2018-07-24T08:11:34.478Z,56.92
2018-07-24T08:12:34.473Z,57.01
2018-07-24T08:13:34.462Z,55.85
2018-07-24T08:14:34.453Z,56.43
2018-07-24T08:15:34.448Z,56.82
2018-07-24T08:16:34.441Z,56.14
2018-07-24T08:17:34.432Z,55.65
2018-07-24T08:18:34.429Z,55.36
2018-07-24T08:19:34.414Z,56.24
2018-07-24T08:20:34.404Z,56.43
2018-07-24T08:21:34.401Z,56.14
2018-07-24T08:22:34.393Z,55.94
2018-07-24T08:23:34.379Z,56.43
2018-07-24T08:24:34.371Z,56.92
2018-07-24T08:25:34.363Z,57.89
2018-07-24T08:26:34.362Z,58.98
2018-07-24T08:27:34.346Z,57.23
2018-07-24T08:28:34.340Z,57.04
2018-07-24T08:29:34.331Z,57.14
2018-07-24T08:30:34.323Z,57.92
2018-07-24T08:31:34.317Z,57.07
2018-07-24T08:32:34.323Z,57.95
2018-07-24T08:33:34.333Z,56.77
2018-07-24T08:34:34.291Z,55.41
2018-07-24T08:35:34.285Z,58.14
2018-07-24T08:36:34.277Z,54.93
2018-07-24T08:37:34.273Z,54.64
2018-07-24T08:38:34.262Z,55.22
2018-07-24T08:39:34.253Z,53.57
2018-07-24T08:40:34.245Z,53.20
2018-07-24T08:41:34.240Z,54.28
2018-07-24T08:42:34.239Z,53.77
2018-07-24T08:43:34.223Z,53.59
2018-07-24T08:44:34.217Z,54.35
2018-07-24T08:45:34.211Z,54.28
2018-07-24T08:46:34.200Z,55.25
2018-07-24T08:47:34.199Z,56.03
2018-07-24T08:48:34.190Z,55.93
2018-07-24T08:49:34.177Z,55.74
2018-07-24T08:50:34.170Z,55.15
2018-07-24T08:51:34.164Z,55.57
2018-07-24T08:52:34.275Z,55.18
2018-07-24T08:53:34.392Z,54.89
2018-07-24T08:54:34.297Z,54.89
2018-07-24T08:55:34.524Z,56.45
2018-07-24T08:56:34.127Z,55.57
2018-07-24T08:57:34.170Z,56.57
2018-07-24T08:58:34.112Z,55.21
2018-07-24T08:59:34.105Z,58.03
2018-07-24T09:00:34.166Z,55.60
2018-07-24T09:01:34.091Z,54.43
2018-07-24T09:02:34.084Z,53.28
2018-07-24T09:03:34.180Z,53.67
2018-07-24T09:04:34.069Z,53.09
2018-07-24T09:05:34.062Z,53.28
2018-07-24T09:06:34.055Z,52.99
2018-07-24T09:07:34.055Z,52.09
2018-07-24T09:08:34.042Z,53.55
2018-07-24T09:09:34.034Z,53.85
2018-07-24T09:10:34.028Z,55.01
2018-07-24T09:11:34.020Z,53.85
2018-07-24T09:12:34.016Z,53.36
2018-07-24T09:13:34.009Z,53.36
2018-07-24T09:14:33.999Z,52.55
2018-07-24T09:15:33.997Z,53.42
2018-07-24T09:16:33.985Z,54.01
2018-07-24T09:17:33.978Z,55.40
2018-07-24T09:18:33.971Z,55.11
2018-07-24T09:19:33.966Z,54.43
2018-07-24T09:20:33.957Z,53.45
2018-07-24T09:21:33.955Z,53.85
2018-07-24T09:22:33.944Z,54.06
2018-07-24T09:23:33.938Z,53.48
2018-07-24T09:24:33.931Z,53.28
2018-07-24T09:25:33.924Z,55.07
2018-07-24T09:26:33.915Z,54.38
2018-07-24T09:27:33.909Z,54.09
2018-07-24T09:28:33.904Z,53.11
2018-07-24T09:29:33.898Z,53.63
2018-07-24T09:30:33.919Z,53.44
2018-07-24T09:31:33.887Z,53.83
2018-07-24T09:32:33.883Z,53.85
2018-07-24T09:33:33.870Z,52.19
2018-07-24T09:34:33.864Z,54.44
2018-07-24T09:35:33.858Z,54.34
2018-07-24T09:36:33.856Z,53.56
2018-07-24T09:37:33.851Z,49.56
2018-07-24T09:38:33.841Z,49.88
2018-07-24T09:39:33.840Z,49.68
2018-07-24T09:40:33.901Z,50.07
2018-07-24T09:41:33.829Z,50.16
2018-07-24T09:42:33.820Z,49.88
2018-07-24T09:43:33.812Z,50.46
2018-07-24T09:44:33.818Z,49.29
2018-07-24T09:45:33.800Z,49.10
2018-07-24T09:46:33.789Z,51.34
2018-07-24T09:47:33.784Z,50.95
2018-07-24T09:48:33.779Z,51.04
2018-07-24T09:49:33.784Z,49.19
2018-07-24T09:50:33.774Z,50.26
2018-07-24T09:51:33.762Z,49.10
2018-07-24T09:52:33.756Z,47.80
2018-07-24T09:53:33.751Z,49.95
2018-07-24T09:54:33.754Z,51.53
2018-07-24T09:55:33.741Z,51.14
2018-07-24T09:56:33.732Z,50.46
2018-07-24T09:57:33.727Z,50.95
2018-07-24T09:58:33.719Z,49.19
2018-07-24T09:59:33.717Z,48.90
2018-07-24T10:00:33.709Z,49.85
2018-07-24T10:01:33.702Z,47.80
2018-07-24T10:02:33.697Z,49.27
2018-07-24T10:03:33.692Z,50.92
2018-07-24T10:04:33.686Z,50.63
2018-07-24T10:05:33.683Z,50.12
2018-07-24T10:06:33.675Z,50.99
2018-07-24T10:07:33.666Z,51.29
2018-07-24T10:08:33.666Z,50.02
2018-07-24T10:09:33.657Z,50.21
2018-07-24T10:10:33.650Z,49.83
2018-07-24T10:11:33.644Z,50.60
2018-07-24T10:12:33.652Z,51.09
2018-07-24T10:13:33.634Z,50.80
2018-07-24T10:14:33.633Z,50.80
2018-07-24T10:15:33.622Z,51.87
2018-07-24T10:16:33.684Z,49.37
2018-07-24T10:17:33.611Z,49.66
2018-07-24T10:18:33.602Z,49.95
2018-07-24T10:19:33.597Z,49.85
2018-07-24T10:20:33.595Z,50.34
2018-07-24T10:21:33.587Z,50.63
2018-07-24T10:22:33.577Z,52.09
2018-07-24T10:23:33.578Z,51.12
2018-07-24T10:24:33.645Z,52.39
2018-07-24T10:25:33.576Z,52.09
2018-07-24T10:26:33.555Z,51.21
2018-07-24T10:27:33.551Z,51.41
2018-07-24T10:28:33.546Z,53.75
2018-07-24T10:29:33.539Z,51.51
2018-07-24T10:30:33.533Z,51.53
2018-07-24T10:31:33.529Z,48.71
2018-07-24T10:32:33.521Z,49.29
2018-07-24T10:33:33.516Z,51.27
2018-07-24T10:34:33.508Z,50.88
2018-07-24T10:35:33.505Z,49.32
2018-07-24T10:36:33.584Z,49.71
2018-07-24T10:37:33.494Z,47.56
2018-07-24T10:38:33.488Z,48.83
2018-07-24T10:39:33.481Z,49.12
2018-07-24T10:40:33.481Z,49.33
2018-07-24T10:41:33.473Z,48.16
2018-07-24T10:42:33.465Z,47.67
2018-07-24T10:43:33.457Z,48.16
2018-07-24T10:44:33.478Z,49.53
2018-07-24T10:45:33.451Z,47.77
2018-07-24T10:46:33.447Z,46.80
2018-07-24T10:47:33.439Z,47.19
2018-07-24T10:48:33.430Z,46.53
2018-07-24T10:49:33.429Z,48.97
2018-07-24T10:50:33.428Z,47.31
2018-07-24T10:51:33.440Z,47.11
2018-07-24T10:52:33.428Z,47.41
2018-07-24T10:53:33.403Z,45.75
2018-07-24T10:54:33.399Z,45.65
2018-07-24T10:55:33.397Z,45.47
2018-07-24T10:56:33.388Z,45.28
2018-07-24T10:57:33.381Z,44.67
2018-07-24T10:58:33.376Z,46.45
2018-07-24T10:59:33.373Z,45.97
2018-07-24T11:00:33.366Z,43.71
2018-07-24T11:01:33.360Z,44.49
2018-07-24T11:02:33.356Z,44.59
2018-07-24T11:03:33.350Z,44.49
2018-07-24T11:04:33.344Z,44.49
2018-07-24T11:05:33.345Z,45.37
2018-07-24T11:06:33.334Z,46.08
2018-07-24T11:07:33.329Z,45.76
2018-07-24T11:08:33.330Z,45.28
2018-07-24T11:09:33.319Z,47.33
2018-07-24T11:10:33.314Z,45.18
2018-07-24T11:11:33.310Z,45.67
2018-07-24T11:12:33.307Z,43.89
2018-07-24T11:13:33.298Z,43.89
2018-07-24T11:14:33.297Z,44.74
2018-07-24T11:15:33.297Z,44.94
2018-07-24T11:16:33.331Z,44.74
2018-07-24T11:17:33.279Z,44.65
2018-07-24T11:18:33.274Z,46.21
2018-07-24T11:19:33.268Z,45.72
2018-07-24T11:20:33.263Z,45.33
2018-07-24T11:21:33.260Z,46.41
2018-07-24T11:22:33.362Z,47.28
2018-07-24T11:23:33.252Z,47.99
2018-07-24T11:24:33.242Z,47.11
2018-07-24T11:25:33.248Z,46.82
2018-07-24T11:26:33.232Z,47.31
2018-07-24T11:27:33.229Z,47.31
2018-07-24T11:28:33.224Z,47.70
2018-07-24T11:29:33.223Z,47.70
2018-07-24T11:30:33.215Z,47.89
2018-07-24T11:31:33.210Z,46.04
2018-07-24T11:32:33.213Z,46.72
2018-07-24T11:33:33.284Z,46.16
2018-07-24T11:34:33.192Z,47.24
2018-07-24T11:35:33.257Z,46.23
2018-07-24T11:36:33.185Z,47.43
2018-07-24T11:37:33.182Z,45.75
2018-07-24T11:38:33.189Z,45.76
2018-07-24T11:39:33.168Z,46.23
2018-07-24T11:40:33.164Z,47.24
2018-07-24T11:41:33.160Z,46.26
2018-07-24T11:42:33.161Z,44.79
2018-07-24T11:43:33.148Z,45.36
2018-07-24T11:44:33.145Z,47.50
2018-07-24T11:45:33.140Z,47.21
2018-07-24T11:46:33.166Z,46.33
2018-07-24T11:47:33.129Z,45.75
2018-07-24T11:48:33.125Z,47.50
2018-07-24T11:49:33.122Z,47.50
2018-07-24T11:50:33.117Z,45.75
2018-07-24T11:51:33.170Z,46.23
2018-07-24T11:52:33.104Z,43.99
2018-07-24T11:53:33.102Z,44.18
2018-07-24T11:54:33.095Z,46.53
2018-07-24T11:55:33.101Z,45.84
2018-07-24T11:56:33.096Z,45.84
2018-07-24T11:57:33.125Z,46.33
2018-07-24T11:58:33.126Z,49.36
2018-07-24T11:59:33.080Z,47.50
2018-07-24T12:00:33.067Z,46.62
2018-07-24T12:01:33.062Z,47.99
2018-07-24T12:02:33.057Z,46.72
2018-07-24T12:03:33.084Z,46.23
2018-07-24T12:04:33.049Z,48.77
2018-07-24T12:05:33.043Z,48.48
2018-07-24T12:06:33.039Z,47.60
2018-07-24T12:07:33.036Z,49.36
2018-07-24T12:08:33.032Z,48.11
2018-07-24T12:09:33.023Z,47.82
2018-07-24T12:10:33.018Z,48.72
2018-07-24T12:11:33.079Z,48.55
2018-07-24T12:12:33.006Z,46.03
2018-07-24T12:13:33.003Z,44.31
2018-07-24T12:14:33.001Z,44.92
2018-07-24T12:15:33.001Z,43.35
2018-07-24T12:16:33.010Z,42.88
2018-07-24T12:17:32.989Z,41.64
2018-07-24T12:18:32.998Z,41.37
2018-07-24T12:19:32.991Z,39.72
2018-07-24T12:20:32.975Z,41.71
2018-07-24T12:21:32.973Z,40.64
2018-07-24T12:22:32.973Z,38.48
2018-07-24T12:23:32.966Z,38.79
2018-07-24T12:24:32.963Z,38.48
2018-07-24T12:25:32.967Z,39.26
2018-07-24T12:26:32.955Z,39.07
2018-07-24T12:27:32.952Z,38.66
2018-07-24T12:28:32.954Z,38.34
2018-07-24T12:29:32.949Z,40.21
2018-07-24T12:30:32.942Z,38.62
2018-07-24T12:31:32.948Z,38.82
2018-07-24T12:32:32.939Z,40.86
2018-07-24T12:33:32.935Z,39.76
2018-07-24T12:34:32.931Z,40.74
2018-07-24T12:35:32.928Z,40.33
2018-07-24T12:36:32.929Z,42.18
2018-07-24T12:37:32.926Z,43.45
2018-07-24T12:38:32.917Z,40.90
2018-07-24T12:39:32.915Z,40.70
2018-07-24T12:40:32.912Z,42.88
2018-07-24T12:41:32.910Z,41.80
2018-07-24T12:43:32.972Z,39.88
2018-07-24T12:45:32.897Z,40.47
2018-07-24T12:46:32.890Z,40.09
2018-07-24T12:47:32.888Z,39.21
2018-07-24T12:48:32.891Z,38.64
2018-07-24T12:49:32.882Z,37.36
2018-07-24T12:50:32.877Z,38.64
2018-07-24T12:51:32.872Z,37.65
2018-07-24T12:52:32.944Z,39.62
2018-07-24T12:53:32.866Z,37.85
2018-07-24T12:54:32.868Z,39.62